Historyczne dane pomiarowe

Dodano dane terminowe – wersja testowa.

Dane z okresu 1951-2019

Wersja bazy: 1.34 [2019-03-16, lista zmian], aktualizacja planowana na 2019-04-15

Dane meteo z obszaru Polski uzyskane na podstawie danych udostępnionych przez Instytut Meteorologii i Gospodarki Wodnej – Państwowy Instytut Badawczy.

 

Wybierz Datę:    

       

TemperaturaWilgotnośćZachmurzenieWiatrCiśnienieWidzialnośćZjawiska
 Data    tng td wb rh cc ccl cl cm ch dir g1 g2 mslp ppp      
1999-07-31 00:00:00 4.1--- 3.6 3.997wxwxwx6wx--- 801.6 2.0---wxw1
1999-07-31 01:00:00 3.8--- 3.2 3.697wxwxwx6wx--- 801.5----wx
1999-07-31 02:00:00 3.6--- 3.6 3.6100wxwxwx7wx--- 801.0----wx
1999-07-31 03:00:00 3.5--- 3.5 3.5100wxwx8wx--- 801.0----wx
1999-07-31 04:00:00 4.2--- 4.1 4.2100wxwx8wx--- 801.0----wxw1
1999-07-31 05:00:00 4.6--- 4.6 4.6100wxwx7wx--- 801.1----wxw1
1999-07-31 06:00:00 4.7--- 4.6 4.7100wxwx8wx--- 801.3 0.1---wx
1999-07-31 07:00:00 4.8--- 4.6 4.798wxwxwx7wx--- 801.5----wx
1999-07-31 08:00:00 5.1--- 4.1 4.794wxwxwx6wx--- 801.8----wx
1999-07-31 09:00:00 5.5--- 2.9 4.383wxwxwxwx6wx--- 801.6----wxw1
1999-07-31 10:00:00 7.3--- 2.9 5.273wxwxwxwx6wx--- 802.1----wx
1999-07-31 11:00:00 8.1--- 3.1 5.770wxwxwxwx6wx--- 802.2----wx
1999-07-31 12:00:00 8.0--- 3.6 5.974wxwxwx6wx--- 802.3 0.0---wxw1
1999-07-31 13:00:00 7.7--- 3.1 5.572wxwxwx6wx--- 802.3----wx
1999-07-31 14:00:00 8.5--- 4.5 6.576wxwxwx5wx--- 802.4----wx
1999-07-31 15:00:00 7.3--- 4.3 5.982wxwxwx5wx--- 802.2----wx
1999-07-31 16:00:00 7.1--- 3.6 5.479wxwxwx6wx--- 802.0----wx
1999-07-31 17:00:00 6.3--- 4.3 5.387wxwxwx6wx--- 802.1----wx
1999-07-31 18:00:00 6.3--- 4.6 5.590wxwxwxwx5wx--- 802.2 0.0---wx
1999-07-31 19:00:00 5.9--- 4.5 5.291wxwxwx4wx--- 802.5----wx
1999-07-31 20:00:00 5.5--- 5.5 5.5100wxwx7wx--- 802.5----wxw1
1999-07-31 21:00:00 5.3--- 5.3 5.3100wxwx6wx--- 802.4----wxw1
1999-07-31 22:00:00 5.1--- 5.1 5.1100wxwx5wx--- 802.6----wxw1
1999-07-31 23:00:00 5.2--- 5.0 5.198wxwxwx6wx--- 802.3----wxw1

 

Źródłem pochodzenia danych jest Instytut Meteorologii i Gospodarki Wodnej – Państwowy Instytut Badawczy. Dane Instytutu Meteorologii i Gospodarki Wodnej – Państwowego Instytutu Badawczego zostały przetworzone.

Dane źródłowe można odnaleźć na stronie https://dane.imgw.pl